Flight Track Log - Related Links

Times and Time Zones

All times are in EDT time to prevent confusion due to time zone crossing. See the SWA558 flight status page for this flight to view local times or setup timezone preferences in your user account.

Time Position Orientation Groundspeed Altitude Reporting Facility
EDT Latitude Longitude Course Direction KTS MPH feet Rate Location/Type
Sun 12:19:27 PM 26.6331 -81.6947 347° North 249 287 5,700  Level Miami Center
Sun 12:20:27 PM 26.7100 -81.7072 352° North 269 310 9,400 3,050 Climbing Miami Center
Sun 12:21:27 PM 26.7972 -81.7156 355° North 290 334 11,800 2,800 Climbing Miami Center
Sun 12:22:27 PM 26.8969 -81.7314 352° North 326 375 15,000 3,000 Climbing Miami Center
Sun 12:23:00 PM 27.0827 -81.7598 340° North  Level FlightAware Approximate
Sun 12:23:27 PM 27.0008 -81.7428 354° North 358 412 17,800  Level Miami Center
Sun 12:24:00 PM 27.1885 -81.7971 347° North  Level FlightAware Approximate
Sun 12:24:27 PM 27.1083 -81.7728 346° North 392 451 20,600  Level Miami Center
Sun 12:25:39 PM 27.2158 -81.8078 344° North 397 457 21,000 182 Climbing Miami Center
Sun 12:26:39 PM 27.3314 -81.8453 344° North 397 457 21,000  Level Miami Center
Sun 12:27:39 PM 27.4303 -81.8800 343° North 377 434 21,000 750 Level Miami Center
Sun 12:28:39 PM 27.5375 -81.9200 342° North 367 422 22,500 1,000 Climbing Miami Center
Sun 12:29:39 PM 27.6383 -81.9572 342° North 367 422 23,000 300 Climbing Miami Center
Sun 12:30:39 PM 27.7394 -81.9944 342° North 383 441 23,100 745 Climbing Miami Center
Sun 12:32:20 PM 27.9383 -82.0139 355° North 408 470 25,000 1,193 Climbing Jacksonville Center
Sun 12:33:20 PM 28.0533 -82.0531 343° North 420 483 26,300 1,686 Climbing Jacksonville Center
Sun 12:34:21 PM 28.1581 -82.1228 330° Northwest 431 496 28,400 2,250 Climbing Jacksonville Center
Sun 12:35:20 PM 28.2731 -82.1642 342° North 436 502 30,800 1,815 Climbing Jacksonville Center
Sun 12:36:20 PM 28.3881 -82.1964 346° North 430 495 32,000 600 Climbing Jacksonville Center
Sun 12:37:20 PM 28.5111 -82.1956 360° North 421 484 32,000 950 Level Jacksonville Center
Sun 12:38:20 PM 28.6322 -82.1972 359° North 428 493 33,900 1,200 Climbing Jacksonville Center
Sun 12:39:20 PM 28.7450 -82.2225 349° North 421 484 34,400 1,150 Climbing Jacksonville Center
Sun 12:40:20 PM 28.8536 -82.2572 344° North 403 464 36,200 1,500 Climbing Jacksonville Center
Sun 12:41:20 PM 28.9561 -82.2922 343° North 398 458 37,400 850 Climbing Jacksonville Center
Sun 12:42:20 PM 29.0503 -82.3200 346° North 387 445 37,900 300 Climbing Jacksonville Center
Sun 12:43:20 PM 29.1589 -82.3553 344° North 387 445 38,000  Climbing Jacksonville Center
Sun 12:44:20 PM 29.2633 -82.3881 345° North 387 445 37,900 -50 Descending Jacksonville Center
Sun 12:45:20 PM 29.3700 -82.4231 344° North 387 445 37,900 50 Level Jacksonville Center
Sun 12:46:20 PM 29.4767 -82.4583 344° North 392 451 38,000  Climbing Jacksonville Center
Sun 12:47:20 PM 29.5853 -82.4936 344° North 397 457 37,900  Descending Jacksonville Center
Sun 12:48:20 PM 29.6919 -82.5267 345° North 397 457 38,000 50 Climbing Jacksonville Center
Sun 12:49:20 PM 29.8006 -82.5647 343° North 402 463 38,000  Level Jacksonville Center
Sun 12:50:20 PM 29.9092 -82.5978 345° North 402 463 38,000  Level Jacksonville Center
Sun 12:51:20 PM 30.0178 -82.6336 344° North 402 463 38,000  Level Jacksonville Center
Sun 12:52:20 PM 30.1306 -82.6717 344° North 402 463 38,000  Level Jacksonville Center
Sun 12:53:20 PM 30.2392 -82.7097 343° North 402 463 38,000  Level Jacksonville Center
Sun 12:54:20 PM 30.3519 -82.7481 344° North 409 471 38,000  Level Jacksonville Center
Sun 12:55:20 PM 30.4647 -82.7842 345° North 409 471 38,000  Level Jacksonville Center
Sun 12:56:20 PM 30.5733 -82.8250 342° North 414 476 38,000  Level Jacksonville Center
Sun 12:57:20 PM 30.6861 -82.8636 344° North 414 476 38,000  Level Jacksonville Center
Sun 12:58:20 PM 30.7989 -82.8997 345° North 419 482 38,000  Level Jacksonville Center
Sun 12:59:20 PM 30.9075 -82.9361 344° North 419 482 38,000  Level Jacksonville Center
Sun 01:00:20 PM 31.0203 -82.9700 346° North 419 482 38,000  Level Jacksonville Center
Sun 01:01:20 PM 31.1308 -83.0067 344° North 414 476 38,000  Level Jacksonville Center
Sun 01:02:20 PM 31.2394 -83.0408 345° North 419 482 38,000  Level Jacksonville Center
Sun 01:03:20 PM 31.3481 -83.0800 343° North 406 467 38,000  Level Jacksonville Center
Sun 01:04:53 PM 31.5306 -83.1472 343° North 403 464 38,000  Level Atlanta Center
Sun 01:05:53 PM 31.6414 -83.1850 344° North 403 464 38,000  Level Atlanta Center
Sun 01:06:53 PM 31.7503 -83.2208 344° North 403 464 38,000  Level Atlanta Center
Sun 01:07:53 PM 31.8631 -83.2589 344° North 403 464 38,000  Level Atlanta Center
Sun 01:08:53 PM 31.9739 -83.2969 344° North 403 464 38,000  Level Atlanta Center
Sun 01:09:53 PM 32.0847 -83.3353 344° North 403 464 38,000  Level Atlanta Center
Sun 01:10:53 PM 32.1956 -83.3761 343° North 408 470 38,000  Level Atlanta Center
Sun 01:11:53 PM 32.3064 -83.4122 345° North 408 470 38,000  Level Atlanta Center
Sun 01:12:53 PM 32.4194 -83.4508 344° North 408 470 38,000  Level Atlanta Center
Sun 01:13:53 PM 32.5303 -83.4919 343° North 408 470 38,000  Level Atlanta Center
Sun 01:14:53 PM 32.6453 -83.5306 344° North 418 481 38,000  Level Atlanta Center
Sun 01:15:53 PM 32.7581 -83.5744 342° North 418 481 38,000  Level Atlanta Center
Sun 01:16:53 PM 32.8708 -83.6108 345° North 418 481 38,000  Level Atlanta Center
Sun 01:17:53 PM 32.9858 -83.6525 343° North 418 481 38,000  Level Atlanta Center
Sun 01:18:53 PM 33.0986 -83.6917 344° North 418 481 38,000  Level Atlanta Center
Sun 01:19:53 PM 33.2114 -83.7308 344° North 418 481 38,000  Level Atlanta Center
Sun 01:20:53 PM 33.3139 -83.7653 344° North 423 487 38,000  Level Atlanta Center
Sun 01:21:53 PM 33.4308 -83.8072 343° North 423 487 38,000  Level Atlanta Center
Sun 01:22:53 PM 33.5436 -83.8469 344° North 423 487 38,000  Level Atlanta Center
Sun 01:23:53 PM 33.6606 -83.8892 343° North 423 487 38,000  Level Atlanta Center
Sun 01:24:53 PM 33.7775 -83.9314 343° North 428 493 38,000  Level Atlanta Center
Sun 01:25:53 PM 33.8922 -83.9736 343° North 428 493 38,000  Level Atlanta Center
Sun 01:26:53 PM 34.0092 -84.0161 343° North 433 498 38,000  Level Atlanta Center
Sun 01:27:53 PM 34.1303 -84.0564 345° North 439 505 38,000  Level Atlanta Center
Sun 01:28:53 PM 34.2514 -84.1017 343° North 439 505 38,000  Level Atlanta Center
Sun 01:29:53 PM 34.3703 -84.1469 343° North 439 505 38,000  Level Atlanta Center
Sun 01:30:53 PM 34.4892 -84.1900 343° North 439 505 38,000  Level Atlanta Center
Sun 01:31:53 PM 34.6103 -84.2331 344° North 439 505 38,000  Level Atlanta Center
Sun 01:32:53 PM 34.7394 -84.2814 343° North 439 505 38,000  Level Atlanta Center
Sun 01:33:53 PM 34.8625 -84.3275 343° North 450 518 38,000  Level Atlanta Center
Sun 01:34:53 PM 34.9667 -84.3683 342° North 450 518 38,000  Level Atlanta Center
Sun 01:35:53 PM 35.0897 -84.4119 344° North 450 518 38,000  Level Atlanta Center
Sun 01:36:53 PM 35.2086 -84.4581 342° North 445 512 38,000  Level Atlanta Center
Sun 01:37:53 PM 35.3294 -84.5019 343° North 445 512 38,000  Level Atlanta Center
Sun 01:38:53 PM 35.4503 -84.5486 343° North 445 512 38,000  Level Atlanta Center
Sun 01:39:53 PM 35.5731 -84.5953 343° North 450 518 38,000  Level Atlanta Center
Sun 01:40:53 PM 35.6958 -84.6397 344° North 450 518 38,000  Level Atlanta Center
Sun 01:41:53 PM 35.8292 -84.6867 344° North 450 518 38,000  Level Atlanta Center
Sun 01:44:10 PM 36.0956 -84.7903 343° North 457 526 38,000  Level Indianapolis Center
Sun 01:45:11 PM 36.2156 -84.8358 343° North 453 521 38,000  Level Indianapolis Center
Sun 01:46:13 PM 36.3350 -84.8819 343° North 452 520 38,000  Level Indianapolis Center
Sun 01:47:15 PM 36.4781 -84.9369 343° North 450 518 38,000  Level Indianapolis Center
Sun 01:48:17 PM 36.5956 -84.9828 343° North 445 512 38,000  Level Indianapolis Center
Sun 01:49:18 PM 36.7142 -85.0283 343° North 446 513 38,000  Level Indianapolis Center
Sun 01:50:20 PM 36.8375 -85.0592 349° North 453 521 38,000  Level Indianapolis Center
Sun 01:51:22 PM 36.9617 -85.0914 348° North 453 521 38,000  Level Indianapolis Center
Sun 01:52:23 PM 37.0981 -85.1256 349° North 454 522 38,000  Level Indianapolis Center
Sun 01:53:25 PM 37.2231 -85.1569 349° North 455 524 38,000  Level Indianapolis Center
Sun 01:54:27 PM 37.3472 -85.1914 348° North 455 524 38,000  Level Indianapolis Center
Sun 01:55:29 PM 37.4719 -85.2242 348° North 455 524 38,000  Level Indianapolis Center
Sun 01:56:30 PM 37.5972 -85.2553 349° North 456 525 38,000  Level Indianapolis Center
Sun 01:57:32 PM 37.7194 -85.2903 347° North 450 518 38,000  Level Indianapolis Center
Sun 01:58:34 PM 37.8478 -85.3222 349° North 459 528 38,000  Level Indianapolis Center
Sun 01:59:36 PM 37.9717 -85.3536 349° North 452 520 38,000  Level Indianapolis Center
Sun 02:00:38 PM 38.1172 -85.3933 348° North 445 512 38,000  Level Indianapolis Center
Sun 02:01:39 PM 38.2406 -85.4261 348° North 451 519 38,000 -98 Level Indianapolis Center
Sun 02:02:41 PM 38.3628 -85.4572 349° North 448 516 37,800 -1,355 Descending Indianapolis Center
Sun 02:03:43 PM 38.4836 -85.4906 348° North 445 512 35,200 -1,355 Descending Indianapolis Center
Sun 02:04:45 PM 38.6078 -85.5242 348° North 453 521 35,000 -98 Descending Indianapolis Center
Sun 02:05:46 PM 38.7336 -85.5581 348° North 460 529 35,000  Level Indianapolis Center
Sun 02:06:48 PM 38.8572 -85.5908 348° North 454 522 35,000  Level Indianapolis Center
Sun 02:07:50 PM 38.9833 -85.6261 348° North 460 529 35,000 -1,548 Level Indianapolis Center
Sun 02:08:52 PM 39.1308 -85.6664 348° North 453 521 31,800 -2,419 Descending Indianapolis Center
Sun 02:09:54 PM 39.2519 -85.6997 348° North 447 514 30,000 -878 Descending Indianapolis Center
Sun 02:10:55 PM 39.3714 -85.7322 348° North 439 505 30,000 -146 Level Indianapolis Center
Sun 02:11:57 PM 39.4925 -85.7658 348° North 442 509 29,700 -629 Descending Indianapolis Center
Sun 02:12:59 PM 39.6128 -85.8000 348° North 443 510 28,700 -1,065 Descending Indianapolis Center
Sun 02:14:01 PM 39.7458 -85.8369 348° North 432 497 27,500 -1,065 Descending Indianapolis Center
Sun 02:15:03 PM 39.8614 -85.8692 348° North 424 488 26,500 -1,016 Descending Indianapolis Center
Sun 02:16:05 PM 39.9725 -85.9006 348° North 410 472 25,400 -1,024 Descending Indianapolis Center
Sun 02:17:06 PM 40.0842 -85.9311 348° North 406 467 24,400 -712 Descending Indianapolis Center
Sun 02:18:03 PM 40.1872 -85.9611 347° North 401 461 24,000 -202 Descending Chicago Center
Sun 02:19:05 PM 40.2944 -85.9919 348° North 396 456 24,000  Level Chicago Center
Sun 02:20:06 PM 40.4014 -86.0222 348° North 395 455 24,000 -195 Level Chicago Center
Sun 02:21:08 PM 40.5086 -86.0517 348° North 394 453 23,600 -677 Descending Chicago Center
Sun 02:22:10 PM 40.6189 -86.0558 358° North 396 456 22,600 -1,113 Descending Chicago Center
Sun 02:23:12 PM 40.7278 -86.0531 North 393 452 21,300 -1,694 Descending Chicago Center
Sun 02:24:14 PM 40.8539 -86.0503 North 380 437 19,100 -1,839 Descending Chicago Center
Sun 02:25:16 PM 40.9500 -86.0675 352° North 378 435 17,500 -1,839 Descending Chicago Center
Sun 02:26:18 PM 40.9903 -86.1792 296° West 341 392 15,300 -1,548 Descending Chicago Center
Sun 02:27:20 PM 41.0394 -86.2833 302° West 335 386 14,300 -968 Descending Chicago Center
Sun 02:28:22 PM 41.0922 -86.3789 306° West 324 373 13,300 -968 Descending Chicago Center
Sun 02:29:24 PM 41.1442 -86.4747 306° West 320 368 12,300 -968 Descending Chicago Center
Sun 02:30:26 PM 41.1958 -86.5689 306° West 316 364 11,300 -1,065 Descending Chicago Center
Sun 02:31:28 PM 41.2564 -86.6797 306° West 308 354 10,100 -581 Descending Chicago Center
Sun 02:32:30 PM 41.3025 -86.7636 306° West 304 350 10,100 -48 Level Chicago Center
Sun 02:33:32 PM 41.3519 -86.8550 306° West 306 352 10,000 -677 Descending Chicago Center
Sun 02:34:34 PM 41.4056 -86.9544 306° West 279 321 8,700 -1,113 Descending Chicago Center
Sun 02:35:36 PM 41.4494 -87.0347 306° West 272 313 7,700 -1,016 Descending Chicago Center
Sun 02:36:38 PM 41.4922 -87.1142 306° West 269 310 6,600 -1,129 Descending Chicago Center
Sun 02:37:01 PM 41.5167 -87.1500 312° West 259 298 6,100 -1,079 Descending Chicago TRACON
Sun 02:38:07 PM 41.5167 -87.2667 270° West 265 305 5,000 -600 Descending Chicago TRACON
Sun 02:39:01 PM 41.5167 -87.3333 270° West 261 300 4,900 -619 Descending Chicago TRACON
Sun 02:39:44 PM 41.5131 -87.4122 267° West 260 299 4,000 -514 Descending Chicago Center
Sun 02:40:46 PM 41.5117 -87.5089 269° West 261 300 4,000  Level Chicago Center
Sun 02:41:48 PM 41.5158 -87.6044 273° West 262 302 4,000  Level Chicago Center
Sun 02:42:50 PM 41.5400 -87.6981 289° West 269 310 4,000 -242 Level Chicago Center
Sun 02:43:52 PM 41.5644 -87.7856 290° West 263 303 3,500 -726 Descending Chicago Center
Sun 02:44:54 PM 41.6017 -87.8811 298° West 253 291 2,500 -480 Descending Chicago Center
Sun 02:45:57 PM 41.6544 -87.8997 345° North 249 287 2,500  Level Chicago Center
Sun 02:46:59 PM 41.7033 -87.8575 33° Northeast 225 259 2,500 -240 Level Chicago Center
Sun 02:48:02 PM 41.7500 -87.8333 21° North 180 207 2,000 -359 Descending Chicago TRACON
Sun 02:48:56 PM 41.8000 -87.8167 14° North 168 193 1,800 -421 Descending Chicago TRACON
Sun 02:49:56 PM 41.8000 -87.7833 90° East 132 152 1,200 -600 Descending Chicago TRACON

Login

Don't have an account? Register now (free) for customized features, flight alerts, and more!